Time;durP1;ratioP1;P1;durP2;ratioP2;P2;SDS_P1;SDS_P2;PMS_P1;PMS_P2;Temp;Humidity;BMP_temperature;BMP_pressure;BME280_temperature;BME280_humidity;BME280_pressure;Samples;Min_cycle;Max_cycle;Signal;HPM_P1;HPM_P2
2022/06/29 00:01:32;;;;;;;7.03;6.40;;;;;;;26.27;44.23;95392.03;6235162;28;103401;-56
2022/06/29 00:04:35;;;;;;;9.17;8.40;;;;;;;26.21;44.66;95396.81;6238947;28;103083;-56
2022/06/29 00:07:39;;;;;;;7.13;6.53;;;;;;;26.12;44.34;95401.44;6227003;27;103943;-54
2022/06/29 00:10:42;;;;;;;6.50;6.00;;;;;;;26.06;44.70;95408.09;6239080;27;103260;-55
2022/06/29 00:13:45;;;;;;;6.60;6.10;;;;;;;25.93;45.20;95407.16;6239665;27;102965;-57
2022/06/29 00:16:50;;;;;;;7.00;6.40;;;;;;;25.90;44.99;95404.34;6239753;27;103206;-56
2022/06/29 00:19:53;;;;;;;7.00;6.40;;;;;;;25.81;45.26;95404.34;6225761;27;103255;-55
2022/06/29 00:22:56;;;;;;;6.80;6.40;;;;;;;25.75;45.28;95402.19;6236587;28;103089;-56
2022/06/29 00:25:59;;;;;;;6.63;6.23;;;;;;;25.47;45.03;95361.56;6238373;27;103228;-56
2022/06/29 00:29:03;;;;;;;6.93;6.30;;;;;;;25.67;45.35;95401.88;6230149;27;103169;-50
2022/06/29 00:32:08;;;;;;;6.40;5.80;;;;;;;25.61;45.39;95397.78;6237089;27;103387;-54
2022/06/29 00:35:11;;;;;;;6.33;5.83;;;;;;;25.60;45.20;95398.91;6238988;27;103448;-56
2022/06/29 00:38:15;;;;;;;5.87;5.47;;;;;;;25.65;44.58;95397.94;6238909;27;103144;-56
2022/06/29 00:41:18;;;;;;;8.60;7.27;;;;;;;25.80;44.85;95396.63;6226315;27;102841;-57
2022/06/29 00:44:22;;;;;;;6.10;5.67;;;;;;;25.88;44.65;95396.63;6237630;27;103471;-57
2022/06/29 00:47:27;;;;;;;6.17;5.60;;;;;;;25.92;44.33;95399.44;6238394;27;102941;-56
2022/06/29 00:50:32;;;;;;;6.00;5.27;;;;;;;25.95;44.23;95390.75;6235495;27;103253;-53
2022/06/29 00:53:40;;;;;;;7.97;7.17;;;;;;;25.96;44.51;95392.31;6226916;28;104191;-58
2022/06/29 00:56:44;;;;;;;6.83;6.30;;;;;;;25.98;44.86;95390.09;6237944;27;103730;-56
2022/06/29 00:59:48;;;;;;;6.50;6.00;;;;;;;25.97;44.78;95388.53;6238502;27;103348;-56
2022/06/29 01:02:53;;;;;;;8.63;7.83;;;;;;;25.99;44.77;95381.72;6232502;27;103982;-56
2022/06/29 01:06:02;;;;;;;8.77;7.97;;;;;;;26.02;45.05;95380.31;6225913;27;105011;-55
2022/06/29 01:09:05;;;;;;;7.97;7.47;;;;;;;25.96;44.75;95378.91;6235718;27;103111;-56
2022/06/29 01:12:09;;;;;;;7.33;6.83;;;;;;;25.88;44.91;95379.75;6237571;27;103146;-64
2022/06/29 01:15:12;;;;;;;6.90;6.40;;;;;;;25.80;44.85;95375.19;6226450;27;102884;-56
2022/06/29 01:18:17;;;;;;;5.80;5.40;;;;;;;25.73;44.96;95367.66;6235386;27;103054;-56
2022/06/29 01:21:22;;;;;;;5.80;5.50;;;;;;;25.64;44.94;95366.88;6236812;27;103459;-57
2022/06/29 01:24:27;;;;;;;5.53;5.10;;;;;;;25.60;45.10;95368.63;6236987;27;103642;-56
2022/06/29 01:27:30;;;;;;;5.70;5.30;;;;;;;25.52;45.17;95362.19;6226891;28;104489;-56
2022/06/29 01:30:33;;;;;;;5.80;5.40;;;;;;;25.45;44.90;95364.56;6235615;28;104192;-51
2022/06/29 01:33:36;;;;;;;6.00;5.60;;;;;;;25.43;45.48;95374.81;6236155;27;104300;-51
2022/06/29 01:36:39;;;;;;;6.53;5.77;;;;;;;25.38;45.47;95373.09;6232614;27;104134;-51
2022/06/29 01:39:43;;;;;;;5.77;5.20;;;;;;;25.35;45.43;95372.94;6231017;27;102908;-51
2022/06/29 01:42:47;;;;;;;5.73;5.23;;;;;;;25.44;45.19;95376.41;6237265;27;102872;-50
2022/06/29 01:45:50;;;;;;;5.60;5.13;;;;;;;25.57;44.73;95370.06;6238123;27;103313;-51
2022/06/29 01:48:53;;;;;;;5.17;4.87;;;;;;;25.68;44.66;95375.84;6225457;27;104044;-50
2022/06/29 01:51:56;;;;;;;5.17;4.87;;;;;;;25.77;44.40;95378.50;6237407;27;104972;-51
2022/06/29 01:55:03;;;;;;;4.60;4.30;;;;;;;25.77;43.86;95371.25;6237488;27;103155;-51
2022/06/29 01:58:06;;;;;;;5.03;4.73;;;;;;;25.78;44.18;95370.16;6235533;27;103248;-51
2022/06/29 02:01:09;;;;;;;3.93;3.70;;;;;;;25.80;43.98;95367.13;6225437;27;103906;-49
2022/06/29 02:04:13;;;;;;;4.73;4.43;;;;;;;25.82;43.60;95371.06;6237925;27;102972;-50
2022/06/29 02:07:16;;;;;;;4.43;4.03;;;;;;;25.82;44.03;95360.34;6235726;27;103205;-48
2022/06/29 02:10:20;;;;;;;5.60;4.20;;;;;;;25.82;43.77;95356.88;6237741;27;103375;-49
2022/06/29 02:13:23;;;;;;;4.13;3.93;;;;;;;25.80;43.82;95348.38;6227983;27;103452;-50
2022/06/29 02:16:27;;;;;;;4.23;3.80;;;;;;;25.69;43.95;95350.59;6234925;28;103148;-50
2022/06/29 02:19:30;;;;;;;4.20;3.90;;;;;;;25.60;44.28;95349.88;6237329;27;103238;-49
2022/06/29 02:22:35;;;;;;;4.40;4.00;;;;;;;25.53;44.36;95350.34;6227991;27;103131;-50
2022/06/29 02:25:39;;;;;;;4.30;4.00;;;;;;;25.42;44.07;95343.00;6237524;27;103126;-51
2022/06/29 02:28:43;;;;;;;4.10;3.90;;;;;;;25.34;44.45;95337.28;6234573;27;102832;-49
2022/06/29 02:35:07;;;;;;;5.07;4.77;;;;;;;25.21;44.60;95326.78;6226031;28;103932;-51
2022/06/29 02:38:10;;;;;;;5.87;5.27;;;;;;;25.25;44.38;95330.41;6235582;28;103957;-51
2022/06/29 02:41:14;;;;;;;4.60;4.20;;;;;;;25.14;44.81;95324.56;6235804;27;104327;-51
2022/06/29 02:44:18;;;;;;;4.83;4.53;;;;;;;25.12;44.74;95324.13;6234259;28;103986;-53
2022/06/29 02:47:21;;;;;;;4.40;4.10;;;;;;;25.19;44.86;95315.59;6229675;27;102907;-52
2022/06/29 02:50:24;;;;;;;4.60;3.83;;;;;;;25.29;44.55;95313.34;6235910;27;103597;-51
2022/06/29 02:53:27;;;;;;;4.33;4.13;;;;;;;25.42;44.09;95316.19;6237598;27;103195;-50
2022/06/29 02:56:32;;;;;;;4.17;3.87;;;;;;;25.52;43.81;95313.94;6226310;27;103825;-52
2022/06/29 02:59:35;;;;;;;4.30;4.00;;;;;;;25.57;44.13;95310.31;6235370;28;103220;-51
2022/06/29 03:02:38;;;;;;;4.27;4.03;;;;;;;25.60;43.75;95320.38;6236391;27;103196;-51
2022/06/29 03:05:41;;;;;;;4.47;4.07;;;;;;;25.62;43.77;95323.53;6235251;28;104252;-56
2022/06/29 03:08:44;;;;;;;6.13;4.33;;;;;;;25.62;44.19;95318.97;6211285;28;104181;-57
2022/06/29 03:11:48;;;;;;;9.27;8.60;;;;;;;25.54;44.99;95322.47;6229376;28;103174;-56
2022/06/29 03:14:52;;;;;;;8.00;7.30;;;;;;;25.80;44.74;95314.31;6233956;28;103594;-55
2022/06/29 03:17:55;;;;;;;12.03;10.83;;;;;;;25.95;43.71;95324.47;6235798;27;103903;-56
2022/06/29 03:20:58;;;;;;;12.17;11.17;;;;;;;25.94;44.06;95308.72;6225189;27;103417;-54
2022/06/29 03:24:03;;;;;;;12.53;9.90;;;;;;;26.08;44.03;95321.94;6234348;27;103801;-55
2022/06/29 03:27:08;;;;;;;13.47;12.47;;;;;;;26.07;44.54;95323.03;6236016;28;104205;-54
2022/06/29 03:30:12;;;;;;;10.90;9.90;;;;;;;25.98;44.35;95325.72;6227917;27;103090;-58
2022/06/29 03:33:15;;;;;;;12.00;10.80;;;;;;;25.97;44.39;95324.94;6229100;27;102918;-54
2022/06/29 03:36:18;;;;;;;13.60;12.37;;;;;;;25.69;45.42;95332.63;6239035;27;104163;-54
2022/06/29 03:39:21;;;;;;;10.43;9.53;;;;;;;25.56;45.42;95317.56;6236497;27;103242;-56
2022/06/29 03:42:26;;;;;;;13.30;9.50;;;;;;;25.63;45.10;95314.38;6226184;27;103908;-55
2022/06/29 03:45:29;;;;;;;9.47;8.77;;;;;;;25.62;44.95;95318.16;6233706;28;103311;-55
2022/06/29 03:48:32;;;;;;;9.43;8.53;;;;;;;25.64;44.94;95319.41;6233270;27;103306;-56
2022/06/29 03:51:35;;;;;;;14.67;9.03;;;;;;;25.59;47.39;95316.13;6232823;27;103116;-55
2022/06/29 03:54:38;;;;;;;14.47;13.20;;;;;;;25.76;45.33;95317.97;6224901;27;104403;-55
2022/06/29 03:57:43;;;;;;;9.67;8.80;;;;;;;25.92;44.95;95321.66;6224299;27;102952;-55
2022/06/29 04:00:46;;;;;;;16.17;14.77;;;;;;;25.98;45.67;95320.38;6231931;27;103267;-55
2022/06/29 04:03:49;;;;;;;14.30;13.00;;;;;;;26.05;44.95;95315.31;6229773;28;104572;-55
2022/06/29 04:06:52;;;;;;;14.17;12.80;;;;;;;26.09;45.01;95313.56;6228590;28;104092;-55
2022/06/29 04:09:59;;;;;;;12.30;11.20;;;;;;;26.10;45.07;95312.44;6230505;28;103959;-54
2022/06/29 04:13:04;;;;;;;10.27;9.33;;;;;;;26.03;45.62;95314.06;6226133;27;103093;-55
2022/06/29 04:16:07;;;;;;;10.70;8.00;;;;;;;25.98;44.82;95305.06;6224140;27;104465;-55
2022/06/29 04:19:10;;;;;;;8.23;7.43;;;;;;;25.85;45.10;95316.78;6231474;27;103294;-55
2022/06/29 04:22:13;;;;;;;7.30;6.70;;;;;;;25.89;44.67;95316.97;6210211;28;103265;-55
2022/06/29 04:25:17;;;;;;;8.17;6.80;;;;;;;25.92;44.70;95309.03;6209835;28;103247;-56
2022/06/29 04:28:22;;;;;;;8.23;6.73;;;;;;;25.92;44.47;95306.38;6201298;28;102820;-54
2022/06/29 04:31:25;;;;;;;7.90;6.20;;;;;;;25.80;44.48;95297.44;6211226;28;104038;-54
2022/06/29 04:34:28;;;;;;;6.23;5.63;;;;;;;25.65;44.61;95283.47;6208048;28;104463;-55
2022/06/29 04:37:31;;;;;;;7.43;5.97;;;;;;;25.61;44.68;95290.59;6208842;28;102912;-54
2022/06/29 04:40:34;;;;;;;6.03;5.53;;;;;;;25.56;45.09;95289.97;6216695;28;103763;-55
2022/06/29 04:43:39;;;;;;;5.77;5.07;;;;;;;25.51;45.17;95284.78;6238173;27;103807;-55
2022/06/29 04:46:42;;;;;;;5.50;5.10;;;;;;;25.48;45.04;95274.72;6237905;28;102904;-55
2022/06/29 04:49:45;;;;;;;6.53;5.13;;;;;;;25.42;44.91;95273.34;6234802;28;103971;-54
2022/06/29 04:52:48;;;;;;;5.53;4.80;;;;;;;25.50;45.02;95294.72;6235918;27;103102;-54
2022/06/29 04:55:51;;;;;;;7.30;4.87;;;;;;;25.44;45.40;95296.00;6239371;27;102994;-55
2022/06/29 04:58:56;;;;;;;5.30;4.80;;;;;;;25.36;45.55;95302.16;6239801;27;103172;-55
2022/06/29 05:01:59;;;;;;;4.73;4.30;;;;;;;25.31;45.77;95307.69;6229040;27;104790;-56
2022/06/29 05:05:03;;;;;;;4.60;4.30;;;;;;;25.31;46.20;95307.69;6239326;27;102981;-55
2022/06/29 05:08:06;;;;;;;4.57;4.20;;;;;;;25.34;45.48;95313.19;6240036;27;104059;-54
2022/06/29 05:11:13;;;;;;;4.60;4.30;;;;;;;25.44;45.69;95317.44;6238681;27;103031;-55
2022/06/29 05:14:18;;;;;;;5.00;4.60;;;;;;;25.68;45.21;95317.66;6229362;27;102996;-55
2022/06/29 05:17:21;;;;;;;4.63;4.33;;;;;;;25.75;45.35;95313.72;6239290;28;104098;-55
2022/06/29 05:20:24;;;;;;;8.93;5.83;;;;;;;25.81;45.46;95305.16;6239504;27;103813;-55
2022/06/29 05:23:29;;;;;;;7.03;5.90;;;;;;;25.86;45.68;95307.63;6234737;27;103261;-56
2022/06/29 05:26:32;;;;;;;5.87;5.37;;;;;;;25.91;45.59;95309.38;6234058;28;104313;-56
2022/06/29 05:29:36;;;;;;;6.67;6.13;;;;;;;25.91;45.56;95317.41;6239165;27;103501;-55
2022/06/29 05:32:39;;;;;;;6.57;6.07;;;;;;;25.94;45.68;95314.88;6238790;27;104093;-54
2022/06/29 05:35:43;;;;;;;6.70;6.00;;;;;;;25.94;46.32;95309.50;6228938;28;104168;-55
2022/06/29 05:38:46;;;;;;;7.70;6.20;;;;;;;25.93;46.04;95307.16;6238551;27;103206;-55
2022/06/29 05:41:49;;;;;;;6.27;5.70;;;;;;;25.91;46.39;95317.41;6238943;28;103488;-55
2022/06/29 05:44:53;;;;;;;7.63;6.30;;;;;;;26.00;47.12;95307.44;6238952;27;102978;-54
2022/06/29 05:47:57;;;;;;;6.63;6.03;;;;;;;26.12;46.83;95320.16;6228504;28;104214;-54
2022/06/29 05:51:00;;;;;;;6.87;6.27;;;;;;;26.22;46.12;95312.53;6238356;27;103059;-54
2022/06/29 05:54:04;;;;;;;7.10;6.50;;;;;;;26.28;46.22;95319.28;6237951;27;102947;-54
2022/06/29 05:57:07;;;;;;;7.07;6.03;;;;;;;26.31;45.69;95317.84;6238274;28;102802;-56
2022/06/29 06:00:12;;;;;;;7.00;6.30;;;;;;;26.37;46.16;95329.16;6228308;27;103167;-55
2022/06/29 06:03:17;;;;;;;6.70;6.10;;;;;;;26.37;46.46;95331.84;6238057;27;103161;-58
2022/06/29 06:06:20;;;;;;;6.67;6.00;;;;;;;26.33;46.20;95337.06;6238210;28;103164;-54
2022/06/29 06:09:26;;;;;;;6.80;6.20;;;;;;;26.28;46.05;95331.91;6228899;27;103107;-56
2022/06/29 06:12:30;;;;;;;7.23;5.60;;;;;;;26.12;46.19;95320.94;6237487;28;104099;-54
2022/06/29 06:15:35;;;;;;;6.20;5.70;;;;;;;26.19;46.29;95333.84;6238398;27;104158;-55
2022/06/29 06:18:39;;;;;;;6.23;5.63;;;;;;;26.19;46.42;95340.00;6238194;27;103278;-58
2022/06/29 06:21:42;;;;;;;7.10;6.40;;;;;;;26.17;46.17;95336.06;6227828;27;104257;-56
2022/06/29 06:24:45;;;;;;;7.60;7.00;;;;;;;26.16;46.61;95327.22;6237449;27;103156;-57
2022/06/29 06:27:48;;;;;;;9.63;6.33;;;;;;;26.13;46.88;95319.06;6238819;27;103039;-57
2022/06/29 06:30:53;;;;;;;9.90;7.00;;;;;;;26.06;47.30;95313.44;6238071;27;102769;-57
2022/06/29 06:33:56;;;;;;;6.50;6.00;;;;;;;26.18;46.84;95314.28;6227508;27;102964;-56
2022/06/29 06:37:01;;;;;;;7.43;6.83;;;;;;;26.23;47.13;95308.75;6238098;27;104065;-56
2022/06/29 06:43:23;;;;;;;10.33;9.10;;;;;;;26.44;47.59;95299.91;6185245;27;102894;-56
2022/06/29 06:46:28;;;;;;;8.10;7.40;;;;;;;26.56;47.18;95308.03;6235443;27;103140;-56
2022/06/29 06:49:31;;;;;;;7.90;7.20;;;;;;;26.62;46.85;95303.25;6238219;27;103327;-56
2022/06/29 06:52:34;;;;;;;7.60;6.87;;;;;;;26.70;46.16;95303.19;6237433;27;103151;-55
2022/06/29 06:55:38;;;;;;;8.83;6.90;;;;;;;26.75;46.52;95305.69;6227301;28;104899;-55
2022/06/29 06:58:41;;;;;;;8.33;7.60;;;;;;;26.79;46.11;95303.13;6237897;27;103388;-55
2022/06/29 07:01:55;;;;;;;7.60;6.90;;;;;;;26.83;46.45;95304.81;6237096;28;104071;-55
2022/06/29 07:04:58;;;;;;;7.63;6.93;;;;;;;26.81;46.50;95304.38;6236767;28;102989;-56
2022/06/29 07:08:01;;;;;;;11.30;7.97;;;;;;;26.66;46.81;95302.28;6227134;27;102981;-56
2022/06/29 07:11:06;;;;;;;8.33;7.53;;;;;;;26.56;46.96;95294.63;6236848;27;103039;-56
2022/06/29 07:14:09;;;;;;;11.50;7.00;;;;;;;26.61;46.82;95290.94;6237048;28;103259;-56
2022/06/29 07:17:14;;;;;;;8.10;7.17;;;;;;;26.59;46.32;95296.63;6231822;27;105749;-56
2022/06/29 07:20:17;;;;;;;9.23;7.27;;;;;;;26.54;47.66;95284.19;6231846;27;103187;-56
2022/06/29 07:23:20;;;;;;;9.50;8.53;;;;;;;26.53;47.25;95282.63;6236711;28;104358;-56
2022/06/29 07:26:23;;;;;;;8.10;7.50;;;;;;;26.53;47.50;95295.25;6236910;27;103019;-56
2022/06/29 07:29:34;;;;;;;8.67;7.87;;;;;;;26.51;47.33;95289.44;6227745;28;104155;-57
2022/06/29 07:32:38;;;;;;;7.77;7.17;;;;;;;26.62;47.38;95285.25;6236014;28;102995;-56
2022/06/29 07:35:42;;;;;;;8.93;7.93;;;;;;;26.73;47.19;95280.28;6236503;28;102941;-56
2022/06/29 07:38:45;;;;;;;8.90;8.20;;;;;;;26.83;46.87;95285.22;6235762;27;102986;-56
2022/06/29 07:41:48;;;;;;;8.50;7.80;;;;;;;26.94;46.81;95282.94;6225058;27;103262;-56
2022/06/29 07:44:51;;;;;;;8.87;8.07;;;;;;;27.01;46.43;95281.25;6235844;27;103853;-56
2022/06/29 07:47:55;;;;;;;8.33;7.53;;;;;;;27.10;46.37;95283.88;6236153;27;102983;-56
2022/06/29 07:50:58;;;;;;;8.20;7.60;;;;;;;27.16;45.81;95283.31;6231605;27;103667;-56
2022/06/29 07:54:02;;;;;;;7.60;7.00;;;;;;;27.22;45.80;95275.03;6230551;28;103928;-58
2022/06/29 07:57:05;;;;;;;7.90;7.30;;;;;;;27.23;46.25;95271.25;6235732;27;102847;-56
2022/06/29 08:00:18;;;;;;;9.43;8.40;;;;;;;27.18;46.51;95270.34;6236445;28;103912;-57
2022/06/29 08:03:23;;;;;;;10.57;9.57;;;;;;;27.22;47.23;95275.84;6225100;27;102837;-56
2022/06/29 08:06:26;;;;;;;8.53;7.80;;;;;;;27.15;46.99;95268.31;6236034;27;102940;-56
2022/06/29 08:09:30;;;;;;;8.87;7.97;;;;;;;27.04;47.13;95269.84;6233475;28;103039;-57
2022/06/29 08:12:36;;;;;;;8.00;7.30;;;;;;;26.98;46.69;95259.66;6236013;28;103776;-57
2022/06/29 08:15:39;;;;;;;8.20;7.57;;;;;;;26.94;47.36;95264.13;6228075;27;104076;-56
2022/06/29 08:18:44;;;;;;;9.00;8.20;;;;;;;26.85;47.53;95267.69;6240051;27;103147;-57
2022/06/29 08:21:48;;;;;;;9.33;8.30;;;;;;;27.00;48.39;95268.16;6239627;27;103296;-56
2022/06/29 08:24:51;;;;;;;9.67;8.67;;;;;;;26.95;48.35;95249.59;6239346;28;103961;-56
2022/06/29 08:27:55;;;;;;;8.87;7.67;;;;;;;27.00;48.15;95262.78;6231800;28;102775;-55
2022/06/29 08:30:58;;;;;;;9.00;8.10;;;;;;;27.00;47.92;95270.84;6239620;27;103321;-54
2022/06/29 08:34:03;;;;;;;8.40;7.60;;;;;;;27.04;47.64;95267.16;6239357;27;102930;-55
2022/06/29 08:37:06;;;;;;;8.33;7.60;;;;;;;27.21;47.35;95266.19;6229435;28;104337;-55
2022/06/29 08:40:13;;;;;;;8.97;8.07;;;;;;;27.27;46.97;95266.81;6239057;27;102924;-55
2022/06/29 08:43:18;;;;;;;9.10;7.33;;;;;;;27.23;45.88;95261.31;6239503;27;102961;-54
2022/06/29 08:46:21;;;;;;;8.40;7.70;;;;;;;27.27;46.79;95262.22;6239025;27;102970;-62
2022/06/29 08:49:26;;;;;;;7.97;7.30;;;;;;;27.41;46.37;95262.69;6229150;27;103318;-57
2022/06/29 08:52:35;;;;;;;7.60;7.00;;;;;;;27.50;46.27;95264.47;6238851;27;103224;-58
2022/06/29 08:55:43;;;;;;;8.33;7.63;;;;;;;27.49;46.25;95266.38;6239335;27;103144;-57
2022/06/29 08:58:50;;;;;;;8.23;7.57;;;;;;;27.48;46.10;95267.50;6237916;28;104311;-58
2022/06/29 09:01:54;;;;;;;8.10;6.97;;;;;;;27.46;46.11;95259.78;6233881;28;103556;-57
2022/06/29 09:04:59;;;;;;;8.50;7.70;;;;;;;27.40;46.40;95258.44;6239043;27;103017;-56
2022/06/29 09:08:03;;;;;;;8.03;7.43;;;;;;;27.39;46.33;95258.78;6238519;27;103022;-57
2022/06/29 09:11:23;;;;;;;9.30;7.47;;;;;;;27.31;46.04;95252.38;6229189;27;103205;-57
2022/06/29 09:14:28;;;;;;;8.77;8.07;;;;;;;27.36;46.54;95252.16;6238903;28;103997;-57
2022/06/29 09:17:32;;;;;;;8.00;7.30;;;;;;;27.26;46.28;95244.53;6238967;28;103564;-57
2022/06/29 09:20:41;;;;;;;7.70;7.10;;;;;;;27.20;46.44;95247.72;6238833;28;104047;-58
2022/06/29 09:23:49;;;;;;;8.40;7.47;;;;;;;27.07;46.72;95246.94;6228953;27;103318;-56
2022/06/29 09:26:53;;;;;;;7.57;6.97;;;;;;;26.94;46.77;95254.19;6238842;27;103528;-57
2022/06/29 09:29:57;;;;;;;7.97;7.27;;;;;;;26.90;46.65;95261.34;6238456;28;103011;-57
2022/06/29 09:33:04;;;;;;;7.60;7.03;;;;;;;26.98;45.75;95263.13;6234014;27;103159;-56
2022/06/29 09:36:10;;;;;;;8.40;7.60;;;;;;;27.16;45.46;95250.28;6232726;27;103107;-57
2022/06/29 09:39:32;;;;;;;8.17;7.47;;;;;;;27.26;45.62;95255.28;6238311;27;103152;-60
2022/06/29 09:42:35;;;;;;;9.10;8.30;;;;;;;27.31;45.55;95251.59;6238140;27;102919;-67
2022/06/29 09:45:38;;;;;;;8.17;7.57;;;;;;;27.37;45.55;95248.34;6228214;27;103598;-57
2022/06/29 09:48:43;;;;;;;7.40;6.90;;;;;;;27.44;44.52;95237.84;6237967;27;103142;-57
2022/06/29 09:51:48;;;;;;;8.63;7.93;;;;;;;27.51;45.15;95244.53;6237727;27;103349;-57
2022/06/29 09:54:54;;;;;;;8.33;7.67;;;;;;;27.56;44.72;95247.03;6238038;27;102996;-57
2022/06/29 09:57:58;;;;;;;9.07;8.23;;;;;;;27.57;44.72;95243.22;6227733;27;103264;-57
2022/06/29 10:04:28;;;;;;;8.57;7.93;;;;;;;27.42;45.23;95237.38;6238279;27;102940;-56
2022/06/29 10:07:35;;;;;;;7.87;7.27;;;;;;;27.37;45.07;95229.53;6232110;27;103390;-58
2022/06/29 10:10:39;;;;;;;8.40;7.70;;;;;;;27.35;45.25;95237.13;6236320;27;103251;-57
2022/06/29 10:13:43;;;;;;;8.27;7.53;;;;;;;27.23;44.80;95230.97;6237584;27;103229;-57
2022/06/29 10:16:52;;;;;;;8.57;7.87;;;;;;;27.08;45.32;95224.31;6237499;27;103543;-57
2022/06/29 10:20:09;;;;;;;8.53;7.83;;;;;;;27.02;45.50;95228.31;6227487;27;103058;-57
2022/06/29 10:23:45;;;;;;;8.20;7.50;;;;;;;27.01;45.37;95218.69;6237710;28;103800;-56
2022/06/29 10:26:49;;;;;;;8.20;7.50;;;;;;;27.00;45.90;95223.28;6237638;27;103244;-57
2022/06/29 10:30:19;;;;;;;7.70;6.53;;;;;;;27.17;44.40;95225.78;6232910;28;104129;-56
2022/06/29 10:33:36;;;;;;;7.90;7.33;;;;;;;27.29;44.54;95226.94;6235626;28;103246;-57
2022/06/29 10:37:00;;;;;;;7.17;6.60;;;;;;;27.31;44.25;95225.50;6237476;27;103233;-58
2022/06/29 10:40:17;;;;;;;7.90;7.30;;;;;;;27.32;44.56;95220.91;6236801;27;102991;-59
2022/06/29 10:43:20;;;;;;;7.60;7.00;;;;;;;27.42;44.58;95218.56;6226642;28;102992;-61
2022/06/29 10:46:24;;;;;;;7.70;7.10;;;;;;;27.49;43.80;95209.94;6237181;27;103067;-58
2022/06/29 10:49:32;;;;;;;9.17;6.97;;;;;;;27.52;43.08;95201.19;6237418;28;103626;-56
2022/06/29 10:52:38;;;;;;;7.43;6.93;;;;;;;27.45;43.73;95209.81;6232286;27;103268;-56
2022/06/29 10:55:44;;;;;;;7.47;6.77;;;;;;;27.40;44.06;95204.69;6230666;27;103250;-57
2022/06/29 10:58:47;;;;;;;8.27;7.70;;;;;;;27.36;43.56;95206.44;6236450;27;103141;-57
2022/06/29 11:02:09;;;;;;;8.93;8.13;;;;;;;27.26;43.61;95208.81;6237193;28;104139;-58
2022/06/29 11:05:13;;;;;;;8.73;8.13;;;;;;;27.17;43.74;95196.22;6226262;28;103965;-57
2022/06/29 11:12:02;;;;;;;10.33;9.53;;;;;;;27.05;44.03;95200.78;6236345;27;103096;-57
2022/06/29 11:18:29;;;;;;;15.77;14.53;;;;;;;26.86;44.16;95175.25;6230608;27;103438;-58
2022/06/29 11:21:33;;;;;;;8.53;7.93;;;;;;;26.78;43.43;95181.50;6235840;27;103253;-58
2022/06/29 11:24:54;;;;;;;8.03;7.43;;;;;;;26.87;43.07;95178.72;6236944;27;103418;-57
2022/06/29 11:28:01;;;;;;;5.37;4.93;;;;;;;27.04;41.75;95183.88;6226423;27;103062;-58
2022/06/29 11:31:05;;;;;;;4.87;4.47;;;;;;;27.19;39.10;95177.09;6237206;28;103358;-57
2022/06/29 11:34:08;;;;;;;4.50;4.10;;;;;;;27.29;39.71;95167.84;6235871;27;103163;-58
2022/06/29 11:37:12;;;;;;;5.77;5.10;;;;;;;27.34;40.01;95159.53;6236155;28;104000;-56
2022/06/29 11:40:18;;;;;;;4.80;4.50;;;;;;;27.40;38.99;95161.69;6226221;27;103464;-56
2022/06/29 11:43:23;;;;;;;4.30;3.90;;;;;;;27.37;38.94;95161.53;6236545;28;105475;-61
2022/06/29 11:46:27;;;;;;;4.80;4.40;;;;;;;27.37;38.76;95154.25;6236289;28;103068;-58
2022/06/29 11:49:39;;;;;;;4.77;4.37;;;;;;;27.40;39.15;95156.31;6232393;27;104070;-55
2022/06/29 11:52:46;;;;;;;5.23;4.80;;;;;;;27.36;40.27;95159.97;6235987;27;102971;-58
2022/06/29 11:55:50;;;;;;;5.77;5.37;;;;;;;27.30;40.10;95153.28;6240541;27;103315;-55
2022/06/29 11:58:56;;;;;;;5.23;4.93;;;;;;;27.31;39.77;95138.72;6240740;28;104203;-57
2022/06/29 12:02:00;;;;;;;3.80;3.20;;;;;;;27.30;37.72;95146.00;6231367;27;103011;-57
2022/06/29 12:05:04;;;;;;;3.83;3.03;;;;;;;27.22;36.45;95138.81;6239867;27;103203;-58
2022/06/29 12:08:08;;;;;;;3.20;3.00;;;;;;;27.11;36.06;95129.63;6240863;27;103073;-56
2022/06/29 12:11:11;;;;;;;5.00;3.43;;;;;;;27.18;36.04;95136.00;6240962;28;103953;-56
2022/06/29 12:14:15;;;;;;;6.10;3.20;;;;;;;27.16;36.90;95132.88;6230046;27;102919;-56
2022/06/29 12:17:19;;;;;;;3.80;3.50;;;;;;;27.00;37.92;95134.66;6240486;27;103346;-57
2022/06/29 12:20:22;;;;;;;4.20;3.90;;;;;;;27.00;37.58;95131.19;6239795;28;103960;-57
2022/06/29 12:23:39;;;;;;;4.47;3.37;;;;;;;27.20;35.03;95132.97;6235388;27;103977;-57
2022/06/29 12:26:46;;;;;;;3.17;2.93;;;;;;;27.19;34.26;95115.28;6234365;28;102931;-58
2022/06/29 12:29:50;;;;;;;3.43;3.00;;;;;;;27.33;34.93;95123.03;6240366;27;103146;-66
2022/06/29 12:32:53;;;;;;;3.47;2.80;;;;;;;27.43;34.04;95126.06;6239513;28;102876;-57
2022/06/29 12:35:57;;;;;;;3.00;2.80;;;;;;;27.48;34.10;95125.03;6228454;27;103035;-56
2022/06/29 12:39:00;;;;;;;4.00;2.90;;;;;;;27.52;33.50;95122.44;6239708;27;103167;-57
2022/06/29 12:42:05;;;;;;;2.97;2.77;;;;;;;27.54;32.87;95125.56;6239638;27;103121;-57
2022/06/29 12:45:10;;;;;;;3.10;2.90;;;;;;;27.53;32.97;95124.00;6239660;27;103027;-57
2022/06/29 12:48:19;;;;;;;2.80;2.50;;;;;;;27.57;33.51;95122.22;6229007;28;103872;-58
2022/06/29 12:51:22;;;;;;;3.30;3.10;;;;;;;27.56;32.65;95115.28;6239157;27;103073;-57
2022/06/29 12:54:26;;;;;;;3.60;3.30;;;;;;;27.46;33.54;95119.22;6239794;27;103022;-56
2022/06/29 12:57:29;;;;;;;3.30;3.00;;;;;;;27.39;31.23;95114.41;6234371;27;104238;-54
2022/06/29 13:00:33;;;;;;;3.03;2.80;;;;;;;27.31;31.66;95115.31;6233250;27;103151;-49
2022/06/29 13:03:37;;;;;;;2.80;2.60;;;;;;;27.13;32.52;95103.19;6237975;27;102919;-50
2022/06/29 13:06:40;;;;;;;2.70;2.60;;;;;;;27.12;32.92;95110.47;6238717;28;104056;-50
2022/06/29 13:09:44;;;;;;;2.90;2.70;;;;;;;27.08;33.77;95108.81;6228788;27;103384;-50
2022/06/29 13:12:47;;;;;;;3.37;2.43;;;;;;;27.03;33.70;95093.69;6239422;28;104334;-50
2022/06/29 13:15:51;;;;;;;3.33;3.03;;;;;;;26.99;34.14;95103.53;6238822;27;103068;-51
2022/06/29 13:18:54;;;;;;;3.20;3.00;;;;;;;27.03;34.72;95100.94;6238205;27;103330;-50
2022/06/29 13:21:57;;;;;;;3.53;3.10;;;;;;;27.09;35.45;95086.19;6228769;27;103307;-51
2022/06/29 13:25:00;;;;;;;3.43;3.20;;;;;;;27.25;35.00;95097.84;6237883;27;103867;-50
2022/06/29 13:28:04;;;;;;;3.33;3.10;;;;;;;27.32;34.89;95098.06;6238251;27;103127;-50
2022/06/29 13:31:09;;;;;;;3.40;3.20;;;;;;;27.36;34.95;95093.56;6238403;28;103402;-50
2022/06/29 13:34:12;;;;;;;4.47;3.90;;;;;;;27.40;35.10;95094.47;6226449;27;103244;-51
2022/06/29 13:37:16;;;;;;;4.90;4.50;;;;;;;27.40;35.68;95085.63;6238134;27;103178;-50
2022/06/29 13:40:19;;;;;;;5.53;5.13;;;;;;;27.43;36.01;95093.03;6238275;28;104656;-50
2022/06/29 13:43:22;;;;;;;6.20;5.80;;;;;;;27.37;36.01;95081.69;6230322;28;104812;-49
2022/06/29 13:46:27;;;;;;;5.47;5.10;;;;;;;27.45;36.11;95088.88;6237062;27;103218;-51
2022/06/29 13:49:30;;;;;;;5.70;4.73;;;;;;;27.38;36.19;95077.09;6237931;28;104016;-50
2022/06/29 13:52:33;;;;;;;5.23;4.83;;;;;;;27.27;36.55;95076.81;6238171;27;103191;-50
2022/06/29 13:55:36;;;;;;;5.07;4.73;;;;;;;27.17;36.55;95074.53;6226924;27;102943;-50
2022/06/29 13:58:40;;;;;;;4.53;4.23;;;;;;;27.06;36.89;95062.69;6237284;28;102981;-49
2022/06/29 14:01:44;;;;;;;4.60;4.30;;;;;;;27.05;36.85;95061.91;6238198;27;103209;-50
2022/06/29 14:04:48;;;;;;;4.70;4.40;;;;;;;27.00;37.06;95058.66;6237602;27;103537;-50
2022/06/29 14:07:51;;;;;;;4.67;4.37;;;;;;;26.99;37.15;95054.41;6226536;28;104396;-50
2022/06/29 14:11:15;;;;;;;4.83;4.50;;;;;;;26.95;36.95;95058.88;6237477;28;102989;-49
2022/06/29 14:14:18;;;;;;;4.63;4.33;;;;;;;26.77;37.43;95013.47;6236645;27;103592;-49
2022/06/29 14:17:23;;;;;;;5.00;4.60;;;;;;;27.10;37.03;95037.50;6229932;27;103765;-51
2022/06/29 14:20:26;;;;;;;4.80;4.50;;;;;;;27.22;37.01;95039.41;6235618;27;102991;-49
2022/06/29 14:23:30;;;;;;;5.53;5.03;;;;;;;27.28;36.77;95035.38;6237144;27;103322;-50
2022/06/29 14:26:33;;;;;;;6.67;6.27;;;;;;;27.28;37.30;95040.75;6236744;27;102901;-50
2022/06/29 14:29:39;;;;;;;6.27;5.87;;;;;;;27.37;37.79;95041.38;6226322;27;103112;-50
2022/06/29 14:32:43;;;;;;;7.70;5.70;;;;;;;27.41;37.61;95030.75;6236321;27;103158;-50
2022/06/29 14:35:46;;;;;;;5.53;5.13;;;;;;;27.44;37.42;95038.13;6236915;28;103197;-50